createdAt,value
2019-04-01T06:28:09.770Z,11940.00
2019-04-01T06:29:09.763Z,12448.00
2019-04-01T06:30:09.735Z,12832.00
2019-04-01T06:31:09.745Z,12936.00
2019-04-01T06:32:09.733Z,12960.00
2019-04-01T06:33:09.699Z,13440.00
2019-04-01T06:34:09.793Z,13984.00
2019-04-01T06:35:09.731Z,14068.00
2019-04-01T06:36:09.687Z,13916.00
2019-04-01T06:37:09.689Z,14036.00
2019-04-01T06:38:09.646Z,14352.00
2019-04-01T06:39:09.637Z,14928.00
2019-04-01T06:40:09.715Z,15648.00
2019-04-01T06:41:09.615Z,16064.00
2019-04-01T06:42:09.646Z,16512.00
2019-04-01T06:43:09.590Z,16608.00
2019-04-01T06:44:09.575Z,16384.00
2019-04-01T06:45:09.570Z,16672.00
2019-04-01T06:46:09.582Z,17376.00
2019-04-01T06:47:09.625Z,18080.00
2019-04-01T06:48:09.558Z,18368.00
2019-04-01T06:49:09.625Z,18560.00
2019-04-01T06:50:09.513Z,18752.00
2019-04-01T06:51:09.497Z,19040.00
2019-04-01T06:52:09.499Z,19296.00
2019-04-01T06:53:09.563Z,19648.00
2019-04-01T06:54:09.478Z,20000.00
2019-04-01T06:55:09.589Z,20416.00
2019-04-01T06:56:09.449Z,21440.00
2019-04-01T06:57:09.433Z,22144.00
2019-04-01T06:58:11.968Z,21984.00
2019-04-01T06:59:09.478Z,22080.00
2019-04-01T07:00:09.413Z,22400.00
2019-04-01T07:01:09.393Z,22368.00
2019-04-01T07:02:09.377Z,22400.00
2019-04-01T07:03:09.411Z,22976.00
2019-04-01T07:04:10.139Z,23360.00
2019-04-01T07:05:12.414Z,23712.00
2019-04-01T07:06:09.334Z,24192.00
2019-04-01T07:07:18.751Z,24224.00
2019-04-01T07:08:10.427Z,24416.00
2019-04-01T07:09:09.299Z,24992.00
2019-04-01T07:10:09.289Z,25792.00
2019-04-01T07:11:09.277Z,25952.00
2019-04-01T07:12:09.268Z,26112.00
2019-04-01T07:13:09.314Z,26528.00
2019-04-01T07:14:10.861Z,26592.00
2019-04-01T07:15:09.234Z,27136.00
2019-04-01T07:16:15.823Z,27296.00
2019-04-01T07:17:10.229Z,26880.00
2019-04-01T07:18:09.504Z,27168.00
2019-04-01T07:19:09.232Z,28384.00
2019-04-01T07:20:09.241Z,28768.00
2019-04-01T07:21:09.178Z,28768.00
2019-04-01T07:22:09.241Z,28864.00
2019-04-01T07:23:09.139Z,29440.00
2019-04-01T07:24:10.032Z,29856.00
2019-04-01T07:25:09.271Z,30304.00
2019-04-01T07:26:09.137Z,30816.00
2019-04-01T07:27:09.203Z,31488.00
2019-04-01T07:28:09.123Z,31616.00
2019-04-01T07:29:09.173Z,31776.00
2019-04-01T07:30:09.093Z,33152.00
2019-04-01T07:31:09.089Z,33440.00
2019-04-01T07:32:09.129Z,32416.00
2019-04-01T07:33:09.039Z,32288.00
2019-04-01T07:34:09.045Z,33184.00
2019-04-01T07:35:09.047Z,34912.00
2019-04-01T07:36:10.532Z,35360.00
2019-04-01T07:37:08.996Z,35552.00
2019-04-01T07:38:09.000Z,35808.00
2019-04-01T07:39:08.976Z,35840.00
2019-04-01T07:40:09.023Z,35840.00
2019-04-01T07:41:08.949Z,35296.00
2019-04-01T07:42:08.940Z,36480.00
2019-04-01T07:43:08.947Z,37216.00
2019-04-01T07:44:08.925Z,38592.00
2019-04-01T07:45:08.934Z,39616.00
2019-04-01T07:46:08.897Z,38432.00
2019-04-01T07:47:08.905Z,38848.00
2019-04-01T07:48:12.320Z,40544.00
2019-04-01T07:49:08.873Z,39744.00
2019-04-01T07:50:12.055Z,39776.00
2019-04-01T07:51:08.884Z,39936.00
2019-04-01T07:52:08.841Z,40256.00
2019-04-01T07:53:08.853Z,41600.00
2019-04-01T07:54:09.605Z,42272.00
2019-04-01T07:55:08.921Z,43360.00
2019-04-01T07:56:08.804Z,41856.00
2019-04-01T07:57:08.775Z,41952.00
2019-04-01T07:58:08.766Z,42784.00
2019-04-01T07:59:08.755Z,43040.00
2019-04-01T08:00:08.747Z,43232.00
2019-04-01T08:01:08.782Z,44256.00
2019-04-01T08:02:08.812Z,44960.00
2019-04-01T08:03:08.735Z,45056.00
2019-04-01T08:04:08.697Z,44960.00
2019-04-01T08:05:08.687Z,45632.00
2019-04-01T08:06:08.689Z,45856.00
2019-04-01T08:07:08.690Z,46112.00
2019-04-01T08:08:08.704Z,46592.00
2019-04-01T08:09:08.646Z,47744.00
2019-04-01T08:10:08.632Z,49280.00
2019-04-01T08:11:08.623Z,48768.00
2019-04-01T08:12:08.647Z,47392.00
2019-04-01T08:13:08.604Z,48224.00
2019-04-01T08:14:08.587Z,48160.00
2019-04-01T08:15:08.575Z,49184.00
2019-04-01T08:16:08.592Z,50304.00
2019-04-01T08:17:08.592Z,48864.00
2019-04-01T08:18:08.630Z,53376.00
2019-04-01T08:19:08.531Z,53952.00
2019-04-01T08:20:08.537Z,53088.00
2019-04-01T08:21:08.509Z,51040.00
2019-04-01T08:22:08.521Z,52288.00
2019-04-01T08:23:08.493Z,53760.00
2019-04-01T08:24:08.490Z,54112.00
2019-04-01T08:25:08.470Z,55168.00
2019-04-01T08:26:08.509Z,55552.00
2019-04-01T08:27:08.493Z,55424.00
2019-04-01T08:28:08.450Z,56096.00
2019-04-01T08:29:08.427Z,55232.00
2019-04-01T08:30:08.482Z,55488.00
2019-04-01T08:31:08.426Z,58112.00
2019-04-01T08:32:08.445Z,59648.00
2019-04-01T08:33:08.383Z,59136.00
2019-04-01T08:34:08.391Z,60192.00
2019-04-01T08:35:08.365Z,60800.00
2019-04-01T08:36:08.369Z,59552.00
2019-04-01T08:37:08.358Z,60224.00
2019-04-01T08:38:08.347Z,60512.00
2019-04-01T08:39:08.322Z,60960.00
2019-04-01T08:40:09.080Z,58016.00
2019-04-01T08:41:08.308Z,56704.00
2019-04-01T08:42:08.291Z,57952.00
2019-04-01T08:43:08.325Z,58400.00
2019-04-01T08:44:08.266Z,60032.00
2019-04-01T08:45:08.247Z,60480.00
2019-04-01T08:46:08.248Z,60800.00
2019-04-01T08:47:08.288Z,60384.00
2019-04-01T08:48:08.269Z,61152.00
2019-04-01T08:49:08.225Z,62304.00
2019-04-01T08:50:09.051Z,63392.00
2019-04-01T08:51:08.188Z,63904.00
2019-04-01T08:52:08.253Z,61600.00
2019-04-01T08:53:08.194Z,63040.00
2019-04-01T08:54:08.185Z,64992.00
2019-04-01T08:55:08.136Z,63904.00
2019-04-01T08:56:08.128Z,64832.00
2019-04-01T08:57:08.120Z,65920.00
2019-04-01T08:58:08.108Z,66080.00
2019-04-01T08:59:08.128Z,66464.00
2019-04-01T09:00:08.079Z,65312.00
2019-04-01T09:01:08.078Z,65152.00
2019-04-01T09:02:17.584Z,64512.00
2019-04-01T09:03:09.046Z,65600.00
2019-04-01T09:04:08.083Z,65728.00
2019-04-01T09:05:08.053Z,67008.00
2019-04-01T09:06:08.092Z,68480.00
2019-04-01T09:07:08.000Z,67040.00
2019-04-01T09:08:08.011Z,66080.00
2019-04-01T09:09:08.033Z,65472.00
2019-04-01T09:10:07.975Z,66560.00
2019-04-01T09:11:07.979Z,66880.00
2019-04-01T09:12:07.957Z,67968.00
2019-04-01T09:13:07.941Z,69856.00
2019-04-01T09:14:07.959Z,68800.00
2019-04-01T09:15:07.915Z,68000.00
2019-04-01T09:16:07.913Z,66432.00
2019-04-01T09:17:07.903Z,69952.00
2019-04-01T09:18:07.893Z,71360.00
2019-04-01T09:19:07.911Z,70208.00
2019-04-01T09:20:07.912Z,70464.00
2019-04-01T09:21:07.852Z,72448.00
2019-04-01T09:22:07.891Z,70432.00
2019-04-01T09:23:07.887Z,71168.00
2019-04-01T09:24:07.861Z,69696.00
2019-04-01T09:25:07.813Z,72352.00
2019-04-01T09:26:08.561Z,75072.00
2019-04-01T09:27:07.837Z,73280.00
2019-04-01T09:28:07.800Z,73184.00
2019-04-01T09:29:07.788Z,72832.00
2019-04-01T09:30:07.767Z,74112.00
2019-04-01T09:31:07.784Z,74400.00
2019-04-01T09:32:07.780Z,72608.00
2019-04-01T09:33:07.751Z,74272.00
2019-04-01T09:34:07.710Z,78112.00
2019-04-01T09:35:07.749Z,75072.00
2019-04-01T09:36:07.696Z,72192.00
2019-04-01T09:37:07.693Z,74944.00
2019-04-01T09:38:07.686Z,75936.00
2019-04-01T09:39:07.660Z,76000.00
2019-04-01T09:40:07.650Z,75584.00
2019-04-01T09:41:07.656Z,75552.00
2019-04-01T09:42:07.652Z,71584.00
2019-04-01T09:43:07.629Z,73088.00
2019-04-01T09:44:07.597Z,74240.00
2019-04-01T09:45:07.620Z,74848.00
2019-04-01T09:46:07.637Z,74528.00
2019-04-01T09:47:07.564Z,75136.00
2019-04-01T09:48:07.556Z,75520.00
2019-04-01T09:49:08.065Z,73664.00
2019-04-01T09:50:08.222Z,72000.00
2019-04-01T09:51:07.539Z,73408.00
2019-04-01T09:52:07.842Z,76128.00
2019-04-01T09:53:07.531Z,74464.00
2019-04-01T09:54:07.497Z,75328.00
2019-04-01T09:55:07.492Z,77376.00
2019-04-01T09:56:07.476Z,76640.00
2019-04-01T09:57:17.307Z,75584.00
2019-04-01T09:58:08.538Z,78848.00
2019-04-01T09:59:07.454Z,78560.00
2019-04-01T10:00:07.433Z,78464.00
2019-04-01T10:01:07.451Z,74912.00
2019-04-01T10:02:07.430Z,75872.00
2019-04-01T10:03:07.409Z,78336.00
2019-04-01T10:04:07.390Z,74880.00
2019-04-01T10:05:07.378Z,77376.00
2019-04-01T10:06:10.297Z,77568.00
2019-04-01T10:07:07.379Z,75648.00
2019-04-01T10:08:07.342Z,80640.00
2019-04-01T10:09:07.326Z,78656.00
2019-04-01T10:10:07.334Z,78624.00
2019-04-01T10:11:07.318Z,83616.00
2019-04-01T10:12:07.334Z,79712.00
2019-04-01T10:13:07.330Z,76704.00
2019-04-01T10:14:07.271Z,81216.00
2019-04-01T10:15:07.317Z,82816.00
2019-04-01T10:16:07.252Z,81632.00
2019-04-01T10:17:07.238Z,84256.00
2019-04-01T10:18:07.288Z,82880.00
2019-04-01T10:19:07.238Z,84480.00
2019-04-01T10:20:07.281Z,84288.00
2019-04-01T10:21:07.192Z,82624.00
2019-04-01T10:22:07.184Z,84160.00
2019-04-01T10:23:07.236Z,81312.00
2019-04-01T10:24:07.170Z,81024.00
2019-04-01T10:25:07.155Z,81984.00
2019-04-01T10:26:07.146Z,81728.00
2019-04-01T10:27:07.142Z,82080.00
2019-04-01T10:28:07.152Z,85184.00
2019-04-01T10:29:07.115Z,87104.00
2019-04-01T10:30:07.151Z,83968.00
2019-04-01T10:31:07.092Z,80864.00
2019-04-01T10:32:07.081Z,80704.00
2019-04-01T10:33:07.108Z,85120.00
2019-04-01T10:34:07.064Z,84800.00
2019-04-01T10:35:07.048Z,79904.00
2019-04-01T10:36:07.038Z,82592.00
2019-04-01T10:37:07.102Z,87616.00
2019-04-01T10:38:07.098Z,82496.00
2019-04-01T10:39:07.024Z,80160.00
2019-04-01T10:40:07.000Z,84256.00
2019-04-01T10:41:06.998Z,85216.00
2019-04-01T10:42:07.021Z,85440.00
2019-04-01T10:43:06.957Z,86944.00
2019-04-01T10:44:06.986Z,84736.00
2019-04-01T10:45:06.941Z,82016.00
2019-04-01T10:46:06.943Z,81824.00
2019-04-01T10:47:06.935Z,85952.00
2019-04-01T10:48:07.039Z,84672.00
2019-04-01T10:49:06.973Z,82784.00
2019-04-01T10:50:06.989Z,81280.00
2019-04-01T10:51:06.910Z,85056.00
2019-04-01T10:52:06.958Z,82880.00
2019-04-01T10:53:06.945Z,79776.00
2019-04-01T10:54:06.882Z,82432.00
2019-04-01T10:55:06.925Z,84768.00
2019-04-01T10:56:06.832Z,82848.00
2019-04-01T10:57:06.827Z,83712.00
2019-04-01T10:58:06.799Z,86144.00
2019-04-01T10:59:06.838Z,90624.00
2019-04-01T11:00:06.952Z,85536.00
2019-04-01T11:01:06.808Z,81344.00
2019-04-01T11:02:06.755Z,88288.00
2019-04-01T11:03:06.881Z,86656.00
2019-04-01T11:04:06.762Z,84096.00
2019-04-01T11:05:06.879Z,86784.00
2019-04-01T11:06:06.718Z,93184.00
2019-04-01T11:07:06.711Z,86912.00
2019-04-01T11:08:06.724Z,78432.00
2019-04-01T11:09:06.770Z,82528.00
2019-04-01T11:10:06.861Z,84864.00
2019-04-01T11:11:06.712Z,82304.00
2019-04-01T11:12:06.717Z,79520.00
2019-04-01T11:13:06.697Z,79744.00
2019-04-01T11:14:06.674Z,85088.00
2019-04-01T11:15:06.776Z,79968.00
2019-04-01T11:16:08.607Z,75584.00
2019-04-01T11:17:07.856Z,80960.00
2019-04-01T11:18:06.590Z,81408.00
2019-04-01T11:19:06.600Z,78464.00
2019-04-01T11:20:08.082Z,80192.00
2019-04-01T11:21:06.595Z,81952.00
2019-04-01T11:22:06.569Z,78176.00
2019-04-01T11:23:06.538Z,79488.00
2019-04-01T11:24:07.756Z,78592.00
2019-04-01T11:25:06.575Z,79008.00
2019-04-01T11:26:06.499Z,80896.00
2019-04-01T11:27:06.527Z,74976.00
2019-04-01T11:28:06.478Z,73056.00
2019-04-01T11:29:06.469Z,79808.00
2019-04-01T11:30:07.803Z,80896.00
2019-04-01T11:31:06.480Z,77472.00
2019-04-01T11:32:07.595Z,79680.00
2019-04-01T11:33:07.844Z,83328.00
2019-04-01T11:34:06.456Z,79904.00
2019-04-01T11:35:06.442Z,81696.00
2019-04-01T11:36:06.407Z,81280.00
2019-04-01T11:37:06.483Z,78592.00
2019-04-01T11:38:06.434Z,82496.00
2019-04-01T11:39:06.418Z,81120.00
2019-04-01T11:40:11.077Z,77280.00
2019-04-01T11:41:07.345Z,74912.00
2019-04-01T11:42:06.348Z,75968.00
2019-04-01T11:43:06.368Z,76032.00
2019-04-01T11:44:06.332Z,75872.00
2019-04-01T11:45:06.322Z,77120.00
2019-04-01T11:46:06.475Z,73984.00
2019-04-01T11:47:06.281Z,79520.00
2019-04-01T11:48:08.304Z,84128.00
2019-04-01T11:49:06.288Z,82720.00
2019-04-01T11:50:06.300Z,83776.00
2019-04-01T11:51:06.253Z,86464.00
2019-04-01T11:52:06.221Z,84704.00
2019-04-01T11:53:06.979Z,79296.00
2019-04-01T11:54:08.135Z,81568.00
2019-04-01T11:55:09.178Z,86496.00
2019-04-01T11:56:07.121Z,83520.00
2019-04-01T11:57:06.182Z,79328.00
2019-04-01T11:58:06.243Z,86112.00
2019-04-01T11:59:06.153Z,93696.00
2019-04-01T12:00:06.133Z,85120.00
2019-04-01T12:01:06.126Z,83968.00
2019-04-01T12:02:06.112Z,91168.00
2019-04-01T12:03:06.110Z,85280.00
2019-04-01T12:04:06.120Z,85632.00
2019-04-01T12:05:06.208Z,88608.00
2019-04-01T12:06:06.080Z,85376.00
2019-04-01T12:07:06.076Z,88512.00
2019-04-01T12:08:06.045Z,88224.00
2019-04-01T12:09:06.119Z,87808.00
2019-04-01T12:10:07.665Z,88960.00
2019-04-01T12:11:06.041Z,87616.00
2019-04-01T12:12:06.007Z,89696.00
2019-04-01T12:13:06.000Z,89152.00
2019-04-01T12:14:06.033Z,86336.00
2019-04-01T12:15:05.996Z,87104.00
2019-04-01T12:16:06.868Z,92032.00
2019-04-01T12:17:05.952Z,92736.00
2019-04-01T12:18:05.944Z,90464.00
2019-04-01T12:19:06.304Z,86208.00
2019-04-01T12:20:05.957Z,89440.00
2019-04-01T12:21:05.915Z,93984.00
2019-04-01T12:22:07.640Z,92864.00
2019-04-01T12:23:05.889Z,91136.00
2019-04-01T12:24:05.910Z,89920.00
2019-04-01T12:25:05.919Z,92576.00
2019-04-01T12:26:15.133Z,92320.00
2019-04-01T12:27:06.849Z,88800.00
2019-04-01T12:28:05.838Z,89728.00
2019-04-01T12:29:06.729Z,88864.00
2019-04-01T12:30:05.863Z,89952.00
2019-04-01T12:31:05.801Z,92768.00
2019-04-01T12:32:05.799Z,91968.00
2019-04-01T12:33:05.780Z,92320.00
2019-04-01T12:34:05.777Z,91648.00
2019-04-01T12:35:05.830Z,88896.00
2019-04-01T12:36:05.761Z,93312.00
2019-04-01T12:37:05.778Z,92480.00
2019-04-01T12:38:05.728Z,85088.00
2019-04-01T12:39:05.714Z,88064.00
2019-04-01T12:40:05.779Z,95264.00
2019-04-01T12:41:05.697Z,91136.00
2019-04-01T12:42:05.692Z,85568.00
2019-04-01T12:43:05.792Z,88416.00
2019-04-01T12:44:05.679Z,93088.00
2019-04-01T12:45:05.711Z,92096.00
2019-04-01T12:46:05.642Z,91136.00
2019-04-01T12:47:05.630Z,90528.00
2019-04-01T12:48:05.636Z,88768.00
2019-04-01T12:49:05.614Z,89824.00
2019-04-01T12:50:06.643Z,92128.00
2019-04-01T12:51:05.600Z,90496.00
2019-04-01T12:52:05.592Z,85920.00
2019-04-01T12:53:05.576Z,85056.00
2019-04-01T12:54:05.558Z,85792.00
2019-04-01T12:55:05.579Z,89440.00
2019-04-01T12:56:05.536Z,87328.00
2019-04-01T12:57:05.571Z,88064.00
2019-04-01T12:58:05.864Z,85184.00
2019-04-01T12:59:05.508Z,80352.00
2019-04-01T13:00:05.819Z,85568.00
2019-04-01T13:01:05.513Z,83424.00
2019-04-01T13:02:05.510Z,85024.00
2019-04-01T13:03:05.482Z,88832.00
2019-04-01T13:04:05.441Z,83616.00
2019-04-01T13:05:05.571Z,86016.00
2019-04-01T13:06:05.449Z,87264.00
2019-04-01T13:07:05.490Z,86720.00
2019-04-01T13:08:05.437Z,86016.00
2019-04-01T13:09:05.395Z,81440.00
2019-04-01T13:10:05.381Z,85376.00
2019-04-01T13:11:05.387Z,86432.00
2019-04-01T13:12:05.377Z,85088.00
2019-04-01T13:13:05.390Z,88544.00
2019-04-01T13:14:05.334Z,86560.00
2019-04-01T13:15:05.325Z,81312.00
2019-04-01T13:16:08.778Z,80736.00
2019-04-01T13:17:05.305Z,82976.00
2019-04-01T13:18:05.308Z,84896.00
2019-04-01T13:19:05.288Z,86400.00
2019-04-01T13:20:08.134Z,80544.00
2019-04-01T13:21:05.263Z,77280.00
2019-04-01T13:22:05.300Z,76512.00
2019-04-01T13:23:05.236Z,80512.00
2019-04-01T13:24:05.398Z,82368.00
2019-04-01T13:25:05.759Z,73632.00
2019-04-01T13:26:05.271Z,78944.00
2019-04-01T13:27:09.222Z,82432.00
2019-04-01T13:28:05.199Z,77984.00
2019-04-01T13:29:05.184Z,77984.00
2019-04-01T13:30:05.159Z,77952.00
2019-04-01T13:31:05.162Z,79392.00
2019-04-01T13:32:07.190Z,77760.00
2019-04-01T13:33:05.133Z,77984.00
2019-04-01T13:34:05.215Z,80416.00
2019-04-01T13:35:05.109Z,79808.00
2019-04-01T13:36:07.835Z,76064.00
2019-04-01T13:37:05.118Z,74496.00
2019-04-01T13:38:05.067Z,73504.00
2019-04-01T13:39:05.079Z,71040.00
2019-04-01T13:40:05.053Z,74784.00
2019-04-01T13:41:05.058Z,77472.00
2019-04-01T13:42:05.027Z,76704.00
2019-04-01T13:43:05.059Z,79680.00
2019-04-01T13:44:08.547Z,75360.00
2019-04-01T13:45:05.010Z,67968.00
2019-04-01T13:46:04.996Z,74944.00
2019-04-01T13:47:04.989Z,72928.00
2019-04-01T13:48:05.023Z,65376.00
2019-04-01T13:49:05.005Z,66464.00
2019-04-01T13:50:04.938Z,67520.00
2019-04-01T13:51:05.638Z,64672.00
2019-04-01T13:52:04.929Z,65504.00
2019-04-01T13:53:04.930Z,71136.00
2019-04-01T13:54:09.055Z,75872.00
2019-04-01T13:55:05.887Z,75232.00
2019-04-01T13:56:04.897Z,76032.00
2019-04-01T13:57:04.873Z,77632.00
2019-04-01T13:58:04.882Z,78496.00
2019-04-01T13:59:04.867Z,79200.00
2019-04-01T14:00:04.838Z,76384.00
2019-04-01T14:01:04.821Z,73120.00
2019-04-01T14:02:04.812Z,73184.00
2019-04-01T14:03:04.797Z,72960.00
2019-04-01T14:04:04.809Z,69536.00
2019-04-01T14:05:06.288Z,67840.00
2019-04-01T14:06:04.766Z,68256.00
2019-04-01T14:07:05.000Z,66240.00
2019-04-01T14:08:06.009Z,66592.00
2019-04-01T14:09:05.083Z,68032.00
2019-04-01T14:10:04.721Z,65472.00
2019-04-01T14:11:06.076Z,66912.00
2019-04-01T14:12:04.698Z,67424.00
2019-04-01T14:13:04.778Z,67456.00
2019-04-01T14:14:04.693Z,68032.00
2019-04-01T14:15:04.662Z,68608.00
2019-04-01T14:16:04.665Z,68288.00
2019-04-01T14:17:04.709Z,67104.00
2019-04-01T14:18:04.662Z,67360.00
2019-04-01T14:19:04.679Z,65792.00
2019-04-01T14:20:04.613Z,64960.00
2019-04-01T14:21:15.878Z,64416.00
2019-04-01T14:22:05.591Z,62752.00
2019-04-01T14:23:04.586Z,63136.00
2019-04-01T14:24:04.580Z,61472.00
2019-04-01T14:25:07.306Z,60288.00
2019-04-01T14:26:04.580Z,61248.00
2019-04-01T14:27:04.555Z,60384.00
2019-04-01T14:28:04.541Z,61056.00
2019-04-01T14:29:04.518Z,61376.00
2019-04-01T14:30:05.695Z,59360.00
2019-04-01T14:31:05.255Z,59616.00
2019-04-01T14:32:04.783Z,61088.00
2019-04-01T14:33:04.465Z,58976.00
2019-04-01T14:34:06.422Z,57920.00
2019-04-01T14:35:04.673Z,56640.00
2019-04-01T14:36:04.862Z,57280.00
2019-04-01T14:37:04.956Z,59424.00
2019-04-01T14:38:04.413Z,57504.00
2019-04-01T14:39:04.407Z,55552.00
2019-04-01T14:40:04.385Z,56608.00
2019-04-01T14:41:04.400Z,55936.00
2019-04-01T14:42:04.374Z,52512.00
2019-04-01T14:43:04.359Z,53600.00
2019-04-01T14:44:04.354Z,54592.00
2019-04-01T14:45:05.878Z,54240.00
2019-04-01T14:46:05.810Z,54208.00
2019-04-01T14:47:04.326Z,53792.00
2019-04-01T14:48:06.693Z,53536.00
2019-04-01T14:49:04.293Z,52576.00
2019-04-01T14:50:07.536Z,51136.00
2019-04-01T14:51:04.317Z,50976.00
2019-04-01T14:52:04.265Z,51712.00
2019-04-01T14:53:04.251Z,51776.00
2019-04-01T14:54:05.891Z,51488.00
2019-04-01T14:55:04.230Z,50432.00
2019-04-01T14:56:04.228Z,48352.00
2019-04-01T14:57:04.224Z,46656.00
2019-04-01T14:58:04.194Z,47008.00
2019-04-01T14:59:04.181Z,47136.00
2019-04-01T15:00:04.204Z,47904.00
2019-04-01T15:01:04.151Z,50432.00
2019-04-01T15:02:04.182Z,50400.00
2019-04-01T15:03:04.147Z,48096.00
2019-04-01T15:04:04.129Z,46560.00
2019-04-01T15:05:04.984Z,43936.00
2019-04-01T15:06:04.097Z,44768.00
2019-04-01T15:07:04.089Z,44160.00
2019-04-01T15:08:04.101Z,43488.00
2019-04-01T15:09:04.090Z,42688.00
2019-04-01T15:10:04.069Z,40352.00
2019-04-01T15:11:04.057Z,40640.00
2019-04-01T15:12:04.053Z,43008.00
2019-04-01T15:13:05.985Z,42336.00
2019-04-01T15:14:04.025Z,42752.00
2019-04-01T15:15:04.406Z,43072.00
2019-04-01T15:16:04.069Z,40992.00
2019-04-01T15:17:04.008Z,40352.00
2019-04-01T15:18:04.750Z,38752.00
2019-04-01T15:19:03.960Z,38720.00
2019-04-01T15:20:03.963Z,38176.00
2019-04-01T15:21:03.941Z,38560.00
2019-04-01T15:22:03.930Z,37696.00
2019-04-01T15:23:03.954Z,36832.00
2019-04-01T15:24:03.921Z,35648.00
2019-04-01T15:25:03.949Z,34944.00
2019-04-01T15:26:04.068Z,35552.00
2019-04-01T15:27:04.017Z,36224.00
2019-04-01T15:28:03.885Z,36736.00
2019-04-01T15:29:03.887Z,36288.00
2019-04-01T15:30:03.840Z,36928.00
2019-04-01T15:31:03.833Z,36224.00
2019-04-01T15:32:03.833Z,36032.00
2019-04-01T15:33:03.829Z,35520.00
2019-04-01T15:34:03.820Z,34016.00
2019-04-01T15:35:03.807Z,32960.00
2019-04-01T15:36:04.272Z,31392.00
2019-04-01T15:37:03.762Z,30848.00
2019-04-01T15:38:03.794Z,31232.00
2019-04-01T15:39:03.761Z,31712.00
2019-04-01T15:40:03.739Z,31072.00
2019-04-01T15:41:03.727Z,29376.00
2019-04-01T15:42:03.717Z,29056.00
2019-04-01T15:43:03.701Z,29344.00
2019-04-01T15:44:03.727Z,28992.00
2019-04-01T15:45:03.697Z,29056.00
2019-04-01T15:46:04.181Z,28928.00
2019-04-01T15:47:04.617Z,28160.00
2019-04-01T15:48:03.643Z,27168.00
2019-04-01T15:49:03.629Z,26048.00
2019-04-01T15:50:03.666Z,25408.00
2019-04-01T15:51:03.605Z,25696.00
2019-04-01T15:52:03.613Z,25376.00
2019-04-01T15:53:03.587Z,25504.00
2019-04-01T15:54:04.430Z,25856.00
2019-04-01T15:55:03.586Z,26272.00
2019-04-01T15:56:03.593Z,26336.00
2019-04-01T15:57:03.544Z,25888.00
2019-04-01T15:58:03.553Z,25312.00
2019-04-01T15:59:03.538Z,24352.00
2019-04-01T16:00:03.710Z,24128.00
2019-04-01T16:01:03.522Z,23584.00
2019-04-01T16:02:03.571Z,23744.00
2019-04-01T16:03:03.479Z,23104.00
2019-04-01T16:04:03.474Z,22880.00
2019-04-01T16:05:03.457Z,21952.00
2019-04-01T16:06:03.463Z,22144.00
2019-04-01T16:07:03.429Z,22688.00
2019-04-01T16:08:03.431Z,22336.00
2019-04-01T16:09:03.415Z,21472.00
2019-04-01T16:10:03.405Z,20736.00
2019-04-01T16:11:03.481Z,20224.00
2019-04-01T16:12:03.382Z,20128.00
2019-04-01T16:13:03.391Z,19840.00
2019-04-01T16:14:03.361Z,19808.00
2019-04-01T16:15:03.346Z,19360.00
2019-04-01T16:16:03.339Z,18688.00
2019-04-01T16:17:05.208Z,18560.00
2019-04-01T16:18:03.313Z,18048.00
2019-04-01T16:19:03.326Z,17440.00
2019-04-01T16:20:03.296Z,17280.00
2019-04-01T16:21:03.291Z,17600.00
2019-04-01T16:22:03.357Z,17600.00
2019-04-01T16:23:03.265Z,17216.00
2019-04-01T16:24:03.242Z,16736.00
2019-04-01T16:25:03.236Z,16288.00
2019-04-01T16:26:03.221Z,16160.00
2019-04-01T16:27:03.249Z,16064.00
2019-04-01T16:28:03.266Z,15936.00
2019-04-01T16:29:03.220Z,14912.00
2019-04-01T16:30:03.183Z,14384.00
2019-04-01T16:31:03.187Z,15132.00
2019-04-01T16:32:03.197Z,15428.00
2019-04-01T16:33:03.151Z,14600.00
2019-04-01T16:34:03.151Z,13520.00
2019-04-01T16:35:03.127Z,13076.00
2019-04-01T16:36:03.131Z,12968.00
2019-04-01T16:37:03.135Z,12668.00
2019-04-01T16:38:03.090Z,12648.00
2019-04-01T16:39:03.083Z,12464.00
2019-04-01T16:40:05.805Z,12264.00
2019-04-01T16:41:03.063Z,12004.00
2019-04-01T16:42:03.086Z,11620.00
2019-04-01T16:43:03.041Z,11244.00
2019-04-01T16:44:03.021Z,10944.00
2019-04-01T16:45:03.016Z,10492.00
2019-04-01T16:46:03.017Z,10384.00
2019-04-01T16:47:02.997Z,10072.00
2019-04-01T16:48:03.007Z,10072.00
2019-04-01T16:49:02.971Z,10128.00
2019-04-01T16:50:03.014Z,9888.00
2019-04-01T16:51:03.209Z,9900.00
2019-04-01T16:52:02.943Z,10068.00
2019-04-01T16:53:02.963Z,9924.00
2019-04-01T16:54:02.916Z,9836.00
2019-04-01T16:55:02.910Z,10784.00
2019-04-01T16:56:02.891Z,12228.00
2019-04-01T16:57:02.893Z,12260.00
2019-04-01T16:58:03.187Z,11108.00
2019-04-01T16:59:02.886Z,9772.00
2019-04-01T17:00:02.863Z,8376.00
2019-04-01T17:01:02.869Z,7616.00
2019-04-01T17:02:17.049Z,7580.00
2019-04-01T17:03:03.871Z,7288.00
2019-04-01T17:04:02.823Z,6748.00
2019-04-01T17:05:02.803Z,6248.00
2019-04-01T17:06:02.789Z,5808.00
2019-04-01T17:07:02.784Z,5700.00
2019-04-01T17:08:02.769Z,5808.00
2019-04-01T17:09:02.803Z,5584.00
2019-04-01T17:10:03.273Z,5240.00
2019-04-01T17:11:02.733Z,5068.00
2019-04-01T17:12:02.721Z,4856.00
2019-04-01T17:13:02.728Z,4720.00
2019-04-01T17:14:02.725Z,4704.00
2019-04-01T17:15:03.641Z,4756.00
2019-04-01T17:16:02.671Z,4608.00
2019-04-01T17:17:02.662Z,4452.00
2019-04-01T17:18:02.655Z,4256.00
2019-04-01T17:19:02.673Z,4068.00
2019-04-01T17:20:02.638Z,3928.00
2019-04-01T17:21:05.042Z,3792.00
2019-04-01T17:22:03.077Z,3636.00
2019-04-01T17:23:02.598Z,3624.00
2019-04-01T17:24:02.638Z,3648.00
2019-04-01T17:25:02.572Z,3504.00
2019-04-01T17:26:02.572Z,3340.00
2019-04-01T17:27:02.559Z,3264.00
2019-04-01T17:28:02.550Z,3172.00
2019-04-01T17:29:02.573Z,3040.00
2019-04-01T17:30:02.559Z,2928.00
2019-04-01T17:31:02.511Z,2780.00
2019-04-01T17:32:02.504Z,2696.00
2019-04-01T17:33:02.501Z,2656.00
2019-04-01T17:34:02.485Z,2564.00
2019-04-01T17:35:02.507Z,2380.00
2019-04-01T17:36:02.478Z,2280.00
2019-04-01T17:37:02.448Z,2240.00
2019-04-01T17:38:02.437Z,2192.00
2019-04-01T17:39:02.424Z,2068.00
2019-04-01T17:40:02.463Z,1940.00
2019-04-01T17:41:02.409Z,1836.00
2019-04-01T17:42:02.403Z,1752.00
2019-04-01T17:43:02.379Z,1660.00
2019-04-01T17:44:02.369Z,1548.00
2019-04-01T17:45:02.366Z,1492.00
2019-04-01T17:46:02.374Z,1436.00
2019-04-01T17:47:02.331Z,1340.00
2019-04-01T17:48:02.320Z,1256.00
2019-04-01T17:49:02.413Z,1180.00
2019-04-01T17:50:02.299Z,1108.00
2019-04-01T17:51:02.307Z,1048.00
2019-04-01T17:52:04.330Z,976.00
2019-04-01T17:53:02.275Z,904.00
2019-04-01T17:54:02.255Z,848.00
2019-04-01T17:55:02.243Z,792.00
2019-04-01T17:56:02.256Z,732.00
2019-04-01T17:57:02.236Z,676.00
2019-04-01T17:58:02.226Z,624.00
2019-04-01T17:59:02.361Z,576.00
2019-04-01T18:00:02.193Z,524.00
2019-04-01T18:01:02.217Z,484.00
2019-04-01T18:02:02.165Z,444.00
2019-04-01T18:03:02.161Z,404.00
2019-04-01T18:04:02.479Z,364.00
2019-04-01T18:05:02.139Z,332.00
2019-04-01T18:06:02.204Z,300.00
2019-04-01T18:07:02.130Z,268.00
2019-04-01T18:08:02.106Z,240.00
2019-04-01T18:09:02.156Z,212.00
2019-04-01T18:10:02.076Z,192.00
2019-04-01T18:11:02.090Z,168.00
2019-04-01T18:12:02.062Z,148.00
2019-04-01T18:13:02.048Z,128.00
2019-04-01T18:14:02.974Z,112.00
2019-04-01T18:15:02.024Z,96.00